Latest Weather Observations for Tunnack

IDT60801

Issued at 4:02 pm EST Friday 28 April 2017 (issued every 30 minutes, with the page automatically refreshed every 10 minutes)

About weather observations | Map of weather stations | Latest weather observations for TAS | Other Formats
Station Details ID: 094195 Name: TUNNACK FIRE STATION Lat: -42.45 Lon: 147.46 Height: 461.5 m
Data from the previous 72 hours. | See also: Recent months at Tunnack
Date/Time
EST
Temp
°C
App
Temp
°C
Dew
Point
°C
Rel
Hum
%
Delta-T
°C
Wind Press
QNH
hPa
Press
MSL
hPa
Rain since
9am
mm
Dir  Spd
km/h
Gust
km/h
Spd
kts
Gust
kts
28/04:00pm 14.3 6.9 5.1 54 4.4 WNW 33 46 18 25 1011.8 1011.9 0.0
28/03:30pm 14.7 7.0 5.2 53 4.6 WNW 35 48 19 26 1011.7 1011.8 0.0
28/03:04pm 15.6 7.8 4.9 49 5.2 WNW 35 54 19 29 1012.1 1012.2 0.0
28/03:00pm 15.4 7.2 4.8 49 5.1 WNW 37 54 20 29 1012.0 1012.1 0.0
28/02:52pm 15.7 8.0 5.3 50 5.1 WNW 35 54 19 29 1012.0 1012.1 0.0
28/02:30pm 15.7 7.9 5.0 49 5.2 WNW 35 52 19 28 1011.9 1012.0 0.0
28/02:00pm 15.5 7.7 6.8 56 4.4 WNW 37 48 20 26 1012.1 1012.2 0.0
28/01:48pm 15.7 9.2 6.7 55 4.5 WNW 30 48 16 26 1012.2 1012.3 0.0
28/01:30pm 16.0 11.7 7.7 58 4.3 W 20 33 11 18 1012.6 1012.6 0.0
28/01:00pm 16.2 10.8 7.9 58 4.3 WNW 26 39 14 21 1012.9 1012.9 0.0
28/12:30pm 14.9 11.0 8.6 66 3.3 N 19 24 10 13 1013.2 1013.2 0.0
28/12:00pm 14.8 10.1 7.6 62 3.7 NW 22 37 12 20 1013.8 1013.9 0.0
28/11:30am 13.1 8.5 6.7 65 3.2 NW 20 32 11 17 1014.5 1014.6 0.0
28/11:00am 12.7 9.8 6.7 67 2.9 NW 11 17 6 9 1014.9 1014.9 0.0
28/10:30am 12.2 9.1 7.1 71 2.5 NNW 13 24 7 13 1015.4 1015.5 0.0
28/10:00am 9.8 7.2 7.6 86 1.1 NNE 11 17 6 9 1015.4 1015.5 0.0
28/09:30am 9.9 6.8 7.3 84 1.3 NNE 13 15 7 8 1015.5 1015.6 0.0
28/09:00am 10.1 6.9 7.0 81 1.5 NNW 13 19 7 10 1015.9 1016.0 0.0
28/08:30am 11.5 7.1 7.2 75 2.1 NW 20 32 11 17 1015.5 1015.6 0.0
28/08:00am 10.8 7.7 7.3 79 1.7 WNW 13 22 7 12 1015.6 1015.7 0.0
28/07:30am 9.9 7.2 7.2 83 1.3 NW 11 17 6 9 1015.6 1015.7 0.0
28/07:00am 9.1 5.1 6.5 84 1.2 W 17 22 9 12 1015.3 1015.4 0.0
28/06:30am 9.3 5.7 6.7 84 1.2 W 15 28 8 15 1015.1 1015.1 0.0
28/06:00am 9.8 5.4 7.2 84 1.3 WNW 20 30 11 16 1015.3 1015.4 0.0
28/05:30am 9.3 4.4 7.1 86 1.1 WNW 22 30 12 16 1015.1 1015.1 0.0
28/05:00am 9.8 5.0 7.2 84 1.3 WNW 22 28 12 15 1015.0 1015.0 0.0
28/04:30am 10.0 5.8 7.3 83 1.3 NW 19 22 10 12 1015.0 1015.0 0.0
28/04:00am 9.6 5.3 7.2 85 1.2 NW 19 24 10 13 1015.2 1015.3 0.0
28/03:30am 9.9 4.7 7.3 84 1.3 WNW 24 32 13 17 1015.0 1015.0 0.0
28/03:00am 9.9 4.7 7.3 84 1.3 WNW 24 32 13 17 1014.7 1014.7 0.0
28/02:30am 9.9 5.4 7.0 82 1.4 NW 20 26 11 14 1014.9 1014.9 0.0
28/02:00am 10.2 5.7 6.9 80 1.6 NW 20 30 11 16 1014.9 1014.9 0.0
28/01:30am 10.1 6.0 6.4 78 1.8 NW 17 28 9 15 1014.8 1014.8 0.0
28/01:00am 10.2 6.5 6.4 77 1.8 NNW 15 20 8 11 1014.8 1014.8 0.0
28/12:30am 10.6 6.5 6.4 75 2.0 NNW 17 22 9 12 1014.9 1014.9 0.0
28/12:00am 9.8 5.1 6.2 78 1.7 NW 20 30 11 16 1014.9 1014.9 0.0
 
Date/Time
EST
Temp
°C
App
Temp
°C
Dew
Point
°C
Rel
Hum
%
Delta-T
°C
Wind Press
QNH
hPa
Press
MSL
hPa
Rain since
9am
mm
Dir  Spd
km/h
Gust
km/h
Spd
kts
Gust
kts
27/11:30pm 9.7 4.3 6.4 80 1.6 NW 24 32 13 17 1014.9 1014.9 0.0
27/11:00pm 9.4 4.7 6.1 80 1.6 WNW 20 28 11 15 1015.0 1015.0 0.0
27/10:30pm 9.1 4.9 5.7 79 1.6 WNW 17 24 9 13 1015.1 1015.1 0.0
27/10:00pm 9.4 4.8 5.6 77 1.8 NW 19 28 10 15 1015.1 1015.1 0.0
27/09:30pm 9.3 4.6 5.3 76 1.9 NW 19 26 10 14 1015.2 1015.3 0.0
27/09:00pm 9.2 5.6 5.0 75 1.9 N 13 22 7 12 1015.0 1015.0 0.0
27/08:30pm 9.1 5.1 4.9 75 1.9 NW 15 22 8 12 1015.1 1015.1 0.0
27/08:00pm 8.9 4.5 4.7 75 1.9 NW 17 26 9 14 1015.4 1015.5 0.0
27/07:30pm 8.8 4.0 4.4 74 2.0 NW 19 28 10 15 1015.3 1015.4 0.0
27/07:00pm 8.4 3.5 4.0 74 2.0 NW 19 30 10 16 1015.2 1015.3 0.0
27/06:30pm 8.3 3.7 3.8 73 2.0 WNW 17 24 9 13 1015.5 1015.6 0.0
27/06:00pm 7.9 4.1 3.8 75 1.8 NW 13 19 7 10 1015.8 1015.9 0.0
27/05:30pm 8.4 3.2 3.7 72 2.1 WNW 20 28 11 15 1015.7 1015.8 0.0
27/05:00pm 8.1 4.2 3.4 72 2.1 WNW 13 19 7 10 1015.7 1015.8 0.0
27/04:30pm 8.6 3.9 3.0 68 2.5 W 17 24 9 13 1015.8 1015.9 0.0
27/04:00pm 9.5 4.4 3.3 65 2.8 WNW 19 28 10 15 1015.9 1016.0 0.0
27/03:30pm 9.7 5.0 3.2 64 2.9 WNW 17 26 9 14 1015.9 1016.0 0.0
27/03:00pm 9.9 4.7 2.7 61 3.2 W 19 30 10 16 1016.0 1016.1 0.0
27/02:30pm 8.7 3.9 2.5 65 2.7 WNW 17 26 9 14 1016.0 1016.1 0.0
27/02:00pm 9.4 4.0 2.5 62 3.0 W 20 28 11 15 1015.7 1015.8 0.0
27/01:30pm 10.3 5.1 2.7 59 3.4 W 19 30 10 16 1016.1 1016.2 0.0
27/01:00pm 8.2 3.2 1.6 63 2.8 W 17 24 9 13 1017.2 1017.3 0.0
27/12:30pm 8.2 2.7 1.6 63 2.8 W 20 30 11 16 1017.6 1017.7 0.0
27/12:00pm 8.5 2.2 1.6 62 2.9 W 24 37 13 20 1017.6 1017.7 0.0
27/11:30am 7.0 1.4 1.5 68 2.3 WSW 20 30 11 16 1018.3 1018.4 0.0
27/11:00am 7.7 3.0 1.1 63 2.7 W 15 22 8 12 1018.4 1018.5 0.0
27/10:30am 7.2 2.3 2.3 71 2.1 W 17 28 9 15 1018.5 1018.6 0.0
27/10:00am 6.0 1.4 1.3 72 1.9 W 15 20 8 11 1018.5 1018.6 0.0
27/09:30am 5.9 2.6 2.2 77 1.5 WNW 9 15 5 8 1018.3 1018.4 0.0
27/09:00am 3.4 1.3 1.6 88 0.7 NE 2 7 1 4 1018.5 1018.6 1.4
27/08:30am 0.6 -1.4 -0.1 95 0.3 CALM 0 0 0 0 1018.6 1018.7 1.4
27/08:00am -0.9 -4.3 -1.7 94 0.2 N 6 7 3 4 1018.3 1018.4 1.4
27/07:30am -1.6 -5.0 -2.3 95 0.2 N 6 7 3 4 1018.2 1018.3 1.4
27/07:00am -3.8 -7.7 -4.9 92 0.2 NW 7 11 4 6 1018.1 1018.2 1.4
27/06:30am -1.6 -5.1 -2.6 93 0.3 NW 6 7 3 4 1017.9 1018.0 1.4
27/06:00am -2.3 -5.9 -4.0 88 0.5 WSW 6 15 3 8 1018.0 1018.1 1.2
27/05:30am 0.4 -3.8 -0.9 91 0.5 SW 11 13 6 7 1017.9 1018.0 1.2
27/05:00am 0.1 -3.7 -1.0 92 0.4 WSW 9 13 5 7 1017.7 1017.8 1.2
27/04:30am 0.7 -3.8 -0.4 92 0.4 WSW 13 17 7 9 1017.4 1017.5 1.2
27/04:00am 0.2 -3.9 -0.5 95 0.3 WSW 11 15 6 8 1017.0 1017.1 1.2
27/03:30am 0.1 -4.0 -0.5 96 0.2 W 11 13 6 7 1016.8 1016.9 1.2
27/03:00am -1.7 -5.4 -2.5 94 0.2 WNW 7 9 4 5 1017.2 1017.3 1.2
27/02:30am -1.7 -4.0 -2.5 94 0.2 CALM 0 0 0 0 1017.5 1017.6 1.2
27/02:00am -0.6 -3.9 -1.3 95 0.2 WSW 6 9 3 5 1017.5 1017.6 1.2
27/01:30am -1.3 -4.7 -2.3 93 0.3 SE 6 9 3 5 1017.3 1017.4 1.2
27/01:00am -0.7 -4.1 -1.8 92 0.4 ENE 6 9 3 5 1017.1 1017.2 1.2
27/12:30am 0.7 -2.6 -0.9 89 0.6 NW 6 9 3 5 1017.0 1017.1 1.2
27/12:00am 1.4 -1.8 -0.4 88 0.7 NW 6 9 3 5 1016.8 1016.9 1.2
 
Date/Time
EST
Temp
°C
App
Temp
°C
Dew
Point
°C
Rel
Hum
%
Delta-T
°C
Wind Press
QNH
hPa
Press
MSL
hPa
Rain since
9am
mm
Dir  Spd
km/h
Gust
km/h
Spd
kts
Gust
kts
26/11:30pm 1.6 -2.5 -0.5 86 0.8 SW 11 13 6 7 1016.6 1016.7 1.2
26/11:00pm 2.3 -1.0 -0.1 84 0.9 WSW 7 11 4 6 1016.3 1016.4 1.2
26/10:30pm 3.6 -0.3 1.0 83 1.0 WSW 11 19 6 10 1016.3 1016.4 1.2
26/10:00pm 3.5 -1.2 1.2 85 0.9 SW 15 20 8 11 1016.1 1016.2 1.2
26/09:30pm 3.0 -1.7 0.9 86 0.8 SW 15 24 8 13 1015.8 1015.9 1.2
26/09:00pm 3.5 -1.5 1.4 86 0.8 SSW 17 24 9 13 1015.6 1015.7 1.2
26/08:30pm 3.3 -0.9 1.7 89 0.6 SW 13 20 7 11 1015.4 1015.5 1.2
26/08:00pm 3.7 -1.2 1.9 88 0.7 SSW 17 22 9 12 1014.9 1014.9 1.2
26/07:30pm 2.9 -0.2 1.6 91 0.5 SW 7 13 4 7 1014.4 1014.5 1.2
26/07:00pm 3.8 -1.1 2.3 90 0.6 SW 17 26 9 14 1014.1 1014.2 1.2
26/06:30pm 4.2 -1.1 1.9 85 0.9 SSW 19 32 10 17 1013.4 1013.5 1.0
26/06:00pm 4.0 -0.9 1.9 86 0.9 SSW 17 28 9 15 1012.9 1012.9 0.8
26/05:30pm 4.7 0.2 2.1 83 1.1 SSW 15 22 8 12 1012.3 1012.4 0.8
26/05:00pm 4.5 0.4 2.2 85 0.9 SSW 13 20 7 11 1011.6 1011.7 0.8
26/04:30pm 4.1 0.0 2.5 89 0.7 SSW 13 19 7 10 1011.2 1011.2 0.8
26/04:00pm 4.0 -1.8 2.5 90 0.6 SSW 22 35 12 19 1010.9 1010.9 0.8
26/03:30pm 5.9 0.0 1.4 73 1.8 S 22 43 12 23 1010.0 1010.1 0.0
26/03:00pm 8.0 1.3 1.2 62 2.8 SW 26 35 14 19 1009.2 1009.2 0.0
26/02:30pm 7.1 1.2 -0.6 58 3.0 SSW 20 32 11 17 1008.7 1008.7 0.0
26/02:00pm 8.1 2.6 0.3 58 3.2 SW 19 26 10 14 1008.4 1008.4 0.0
26/01:30pm 7.6 1.7 -0.6 56 3.3 SW 20 32 11 17 1008.2 1008.2 0.0
26/01:00pm 7.5 1.2 -0.9 55 3.3 SW 22 39 12 21 1008.0 1008.0 0.0
26/12:30pm 7.7 2.3 1.1 63 2.7 SW 19 30 10 16 1007.7 1007.8 0.0
26/12:00pm 7.0 -0.3 -0.2 60 2.9 SSW 28 37 15 20 1007.5 1007.5 0.0
26/11:30am 7.0 0.5 0.0 61 2.8 SSW 24 35 13 19 1007.3 1007.3 0.0
26/11:00am 6.8 1.3 0.7 65 2.5 SW 19 30 10 16 1007.1 1007.1 0.0
26/10:30am 6.1 0.7 1.2 71 2.0 SW 19 30 10 16 1006.9 1006.9 0.0
26/10:00am 5.7 0.4 1.6 75 1.7 SW 19 28 10 15 1006.8 1006.8 0.0
26/09:30am 5.4 -0.9 1.5 76 1.6 SW 24 35 13 19 1006.5 1006.5 0.0
26/09:00am 5.3 -0.1 2.3 81 1.3 SW 20 32 11 17 1006.2 1006.2 5.0
26/08:30am 5.1 0.0 3.0 86 0.9 SW 19 28 10 15 1005.7 1005.6 5.0
26/08:00am 5.2 -0.4 3.2 87 0.9 SSW 22 35 12 19 1005.2 1005.2 4.8
26/07:30am 5.4 1.7 4.5 94 0.4 SSW 13 20 7 11 1004.2 1004.2 4.4
26/07:00am 5.6 0.6 4.6 93 0.4 SW 20 32 11 17 1003.7 1003.6 4.2
26/06:30am 5.9 2.7 5.2 95 0.3 WSW 11 17 6 9 1003.3 1003.2 2.6
26/06:00am 6.1 2.9 5.2 94 0.4 WSW 11 13 6 7 1002.5 1002.5 2.0
26/05:30am 6.2 3.0 5.0 92 0.5 SW 11 17 6 9 1002.1 1002.0 1.0
26/05:00am 6.5 2.9 4.8 89 0.8 WSW 13 20 7 11 1001.6 1001.5 0.2
26/04:30am 7.0 3.8 5.3 89 0.8 WSW 11 15 6 8 1000.8 1000.8 0.0
26/04:00am 7.3 4.1 5.1 86 1.0 SW 11 19 6 10 1000.1 1000.0 0.0
26/03:30am 7.4 3.7 4.5 82 1.3 WSW 13 19 7 10 1000.0 999.9 0.0
26/03:00am 7.7 3.6 4.3 79 1.5 W 15 20 8 11 999.8 999.7 0.0
26/02:30am 5.6 2.5 3.8 88 0.8 W 9 13 5 7 999.3 999.2 0.0
26/02:00am 4.6 2.0 3.3 91 0.6 NNW 6 7 3 4 999.2 999.1 0.0
26/01:30am 5.1 2.5 3.3 88 0.8 W 6 9 3 5 999.4 999.3 0.0
26/01:00am 4.8 2.9 3.0 88 0.8 SSW 2 7 1 4 999.3 999.2 0.0
26/12:30am 4.0 2.4 2.5 90 0.6 CALM 0 0 0 0 999.3 999.2 0.0
26/12:00am 4.1 2.5 2.5 89 0.7 CALM 0 0 0 0 999.2 999.1 0.0
 
Date/Time
EST
Temp
°C
App
Temp
°C
Dew
Point
°C
Rel
Hum
%
Delta-T
°C
Wind Press
QNH
hPa
Press
MSL
hPa
Rain since
9am
mm
Dir  Spd
km/h
Gust
km/h
Spd
kts
Gust
kts
25/11:30pm 4.9 3.4 2.9 87 0.8 CALM 0 0 0 0 999.2 999.1 0.0
25/11:00pm 4.3 2.6 1.8 84 1.0 CALM 0 4 0 2 999.3 999.2 0.0
25/10:30pm 5.6 2.3 2.6 81 1.3 W 9 13 5 7 999.3 999.2 0.0
25/10:00pm 7.4 3.5 3.3 75 1.8 WNW 13 17 7 9 999.7 999.6 0.0
25/09:30pm 7.9 4.0 3.4 73 2.0 WNW 13 17 7 9 999.9 999.8 0.0
25/09:00pm 7.7 4.1 3.0 72 2.1 W 11 15 6 8 1000.1 1000.0 0.0
25/08:30pm 8.5 4.5 2.9 68 2.4 WNW 13 17 7 9 1000.0 999.9 0.0
25/08:00pm 9.5 4.8 3.3 65 2.8 W 17 26 9 14 999.9 999.8 0.0
25/07:30pm 7.9 4.0 3.2 72 2.1 WSW 13 19 7 10 1000.2 1000.1 0.0
25/07:00pm 8.6 5.4 3.0 68 2.5 NNW 9 11 5 6 1000.2 1000.1 0.0
25/06:30pm 9.7 6.2 3.7 66 2.7 WSW 11 19 6 10 1000.1 1000.0 0.0
25/06:00pm 10.1 6.3 3.8 65 2.9 WSW 13 19 7 10 1000.2 1000.1 0.0
25/05:30pm 10.7 7.0 4.2 64 3.0 WSW 13 20 7 11 1000.3 1000.2 0.0
25/05:00pm 12.1 7.2 4.1 58 3.7 W 19 30 10 16 1000.3 1000.2 0.0
25/04:30pm 13.1 8.2 5.0 58 3.8 W 20 30 11 16 1000.2 1000.1 0.0

Other Formats:

Comma delimited format used in spreadsheet applications
http://www.bom.gov.au/fwo/IDT60801/IDT60801.94960.axf

JavaScript Object Notation format (JSON) in row-major order
http://www.bom.gov.au/fwo/IDT60801/IDT60801.94960.json